sensor_id;sensor_type;location;lat;lon;timestamp;pressure;altitude;pressure_sealevel;temperature
76583;BMP280;65462;52.148;7.940;2023-06-22T00:00:49;101126.09;;;21.41
76583;BMP280;65462;52.148;7.940;2023-06-22T00:03:15;101133.00;;;21.35
76583;BMP280;65462;52.148;7.940;2023-06-22T00:05:41;101129.91;;;21.37
76583;BMP280;65462;52.148;7.940;2023-06-22T00:08:06;101126.84;;;21.35
76583;BMP280;65462;52.148;7.940;2023-06-22T00:10:31;101124.91;;;21.35
76583;BMP280;65462;52.148;7.940;2023-06-22T00:12:56;101116.47;;;21.33
76583;BMP280;65462;52.148;7.940;2023-06-22T00:15:22;101117.22;;;21.34
76583;BMP280;65462;52.148;7.940;2023-06-22T00:17:49;101115.31;;;21.34
76583;BMP280;65462;52.148;7.940;2023-06-22T00:20:14;101112.25;;;21.32
76583;BMP280;65462;52.148;7.940;2023-06-22T00:22:39;101107.25;;;21.31
76583;BMP280;65462;52.148;7.940;2023-06-22T00:25:08;101103.78;;;21.30
76583;BMP280;65462;52.148;7.940;2023-06-22T00:27:34;101104.19;;;21.29
76583;BMP280;65462;52.148;7.940;2023-06-22T00:30:00;101091.84;;;21.28
76583;BMP280;65462;52.148;7.940;2023-06-22T00:32:25;101085.69;;;21.24
76583;BMP280;65462;52.148;7.940;2023-06-22T00:34:50;101093.81;;;21.27
76583;BMP280;65462;52.148;7.940;2023-06-22T00:37:16;101088.41;;;21.24
76583;BMP280;65462;52.148;7.940;2023-06-22T00:39:42;101090.72;;;21.22
76583;BMP280;65462;52.148;7.940;2023-06-22T00:42:07;101086.91;;;21.23
76583;BMP280;65462;52.148;7.940;2023-06-22T00:44:33;101072.28;;;21.20
76583;BMP280;65462;52.148;7.940;2023-06-22T00:46:58;101065.75;;;21.14
76583;BMP280;65462;52.148;7.940;2023-06-22T00:49:25;101067.69;;;21.10
76583;BMP280;65462;52.148;7.940;2023-06-22T00:51:50;101072.66;;;21.05
76583;BMP280;65462;52.148;7.940;2023-06-22T00:54:16;101074.19;;;21.02
76583;BMP280;65462;52.148;7.940;2023-06-22T00:56:41;101070.72;;;20.98
76583;BMP280;65462;52.148;7.940;2023-06-22T00:59:07;101066.50;;;20.97
76583;BMP280;65462;52.148;7.940;2023-06-22T01:01:37;101063.81;;;20.90
76583;BMP280;65462;52.148;7.940;2023-06-22T01:04:06;101068.78;;;20.92
76583;BMP280;65462;52.148;7.940;2023-06-22T01:06:54;101069.56;;;20.92
76583;BMP280;65462;52.148;7.940;2023-06-22T01:09:25;101064.16;;;20.89
76583;BMP280;65462;52.148;7.940;2023-06-22T01:11:55;101064.94;;;20.86
76583;BMP280;65462;52.148;7.940;2023-06-22T01:14:28;101063.41;;;20.81
76583;BMP280;65462;52.148;7.940;2023-06-22T01:16:59;101061.50;;;20.78
76583;BMP280;65462;52.148;7.940;2023-06-22T01:19:45;101062.25;;;20.75
76583;BMP280;65462;52.148;7.940;2023-06-22T01:22:15;101062.63;;;20.74
76583;BMP280;65462;52.148;7.940;2023-06-22T01:30:22;101066.09;;;20.71
76583;BMP280;65462;52.148;7.940;2023-06-22T01:32:51;101064.91;;;20.72
76583;BMP280;65462;52.148;7.940;2023-06-22T01:35:18;101063.78;;;20.66
76583;BMP280;65462;52.148;7.940;2023-06-22T01:37:44;101074.50;;;20.69
76583;BMP280;65462;52.148;7.940;2023-06-22T01:40:09;101072.19;;;20.71
76583;BMP280;65462;52.148;7.940;2023-06-22T01:42:36;101069.13;;;20.69
76583;BMP280;65462;52.148;7.940;2023-06-22T01:45:02;101069.91;;;20.66
76583;BMP280;65462;52.148;7.940;2023-06-22T01:47:28;101075.66;;;20.68
76583;BMP280;65462;52.148;7.940;2023-06-22T01:49:54;101064.53;;;20.66
76583;BMP280;65462;52.148;7.940;2023-06-22T01:52:20;101064.53;;;20.70
76583;BMP280;65462;52.148;7.940;2023-06-22T01:54:49;101074.09;;;20.67
76583;BMP280;65462;52.148;7.940;2023-06-22T01:57:14;101075.28;;;20.66
76583;BMP280;65462;52.148;7.940;2023-06-22T01:59:47;101078.34;;;20.65
76583;BMP280;65462;52.148;7.940;2023-06-22T02:02:15;101077.19;;;20.62
76583;BMP280;65462;52.148;7.940;2023-06-22T02:04:52;101076.00;;;20.63
76583;BMP280;65462;52.148;7.940;2023-06-22T02:07:21;101077.56;;;20.61
76583;BMP280;65462;52.148;7.940;2023-06-22T02:09:50;101078.34;;;20.61
76583;BMP280;65462;52.148;7.940;2023-06-22T02:12:18;101079.84;;;20.59
76583;BMP280;65462;52.148;7.940;2023-06-22T02:14:46;101078.31;;;20.58
76583;BMP280;65462;52.148;7.940;2023-06-22T02:17:12;101081.38;;;20.56
76583;BMP280;65462;52.148;7.940;2023-06-22T02:19:40;101074.06;;;20.57
76583;BMP280;65462;52.148;7.940;2023-06-22T02:22:06;101076.38;;;20.55
76583;BMP280;65462;52.148;7.940;2023-06-22T02:24:31;101071.38;;;20.53
76583;BMP280;65462;52.148;7.940;2023-06-22T02:26:59;101071.00;;;20.51
76583;BMP280;65462;52.148;7.940;2023-06-22T02:29:24;101069.06;;;20.48
76583;BMP280;65462;52.148;7.940;2023-06-22T02:31:49;101068.69;;;20.46
76583;BMP280;65462;52.148;7.940;2023-06-22T02:34:15;101059.88;;;20.46
76583;BMP280;65462;52.148;7.940;2023-06-22T02:36:45;101062.91;;;20.44
76583;BMP280;65462;52.148;7.940;2023-06-22T02:39:20;101067.50;;;20.43
76583;BMP280;65462;52.148;7.940;2023-06-22T02:41:47;101061.78;;;20.45
76583;BMP280;65462;52.148;7.940;2023-06-22T02:44:12;101068.28;;;20.40
76583;BMP280;65462;52.148;7.940;2023-06-22T02:46:37;101066.75;;;20.39
76583;BMP280;65462;52.148;7.940;2023-06-22T02:49:03;101061.00;;;20.41
76583;BMP280;65462;52.148;7.940;2023-06-22T02:51:28;101066.75;;;20.39
76583;BMP280;65462;52.148;7.940;2023-06-22T02:53:53;101083.63;;;20.40
76583;BMP280;65462;52.148;7.940;2023-06-22T02:56:22;101061.38;;;20.39
76583;BMP280;65462;52.148;7.940;2023-06-22T02:58:50;101072.91;;;20.40
76583;BMP280;65462;52.148;7.940;2023-06-22T03:01:16;101071.72;;;20.37
76583;BMP280;65462;52.148;7.940;2023-06-22T03:03:41;101074.81;;;20.39
76583;BMP280;65462;52.148;7.940;2023-06-22T03:06:06;101065.59;;;20.33
76583;BMP280;65462;52.148;7.940;2023-06-22T03:08:31;101072.88;;;20.36
76583;BMP280;65462;52.148;7.940;2023-06-22T03:10:57;101070.94;;;20.37
76583;BMP280;65462;52.148;7.940;2023-06-22T03:13:22;101069.44;;;20.39
76583;BMP280;65462;52.148;7.940;2023-06-22T03:15:48;101067.09;;;20.38
76583;BMP280;65462;52.148;7.940;2023-06-22T03:18:13;101057.53;;;20.33
76583;BMP280;65462;52.148;7.940;2023-06-22T03:20:38;101060.56;;;20.32
76583;BMP280;65462;52.148;7.940;2023-06-22T03:23:04;101059.78;;;20.28
76583;BMP280;65462;52.148;7.940;2023-06-22T03:25:30;101059.78;;;20.28
76583;BMP280;65462;52.148;7.940;2023-06-22T03:27:55;101057.88;;;20.28
76583;BMP280;65462;52.148;7.940;2023-06-22T03:30:20;101058.59;;;20.25
76583;BMP280;65462;52.148;7.940;2023-06-22T03:32:46;101060.94;;;20.23
76583;BMP280;65462;52.148;7.940;2023-06-22T03:35:11;101058.25;;;20.23
76583;BMP280;65462;52.148;7.940;2023-06-22T03:37:39;101054.78;;;20.23
76583;BMP280;65462;52.148;7.940;2023-06-22T03:40:05;101062.44;;;20.24
76583;BMP280;65462;52.148;7.940;2023-06-22T03:42:30;101057.47;;;20.23
76583;BMP280;65462;52.148;7.940;2023-06-22T03:44:55;101056.31;;;20.20
76583;BMP280;65462;52.148;7.940;2023-06-22T03:47:22;101055.91;;;20.18
76583;BMP280;65462;52.148;7.940;2023-06-22T03:49:47;101050.50;;;20.15
76583;BMP280;65462;52.148;7.940;2023-06-22T03:52:12;101047.09;;;20.14
76583;BMP280;65462;52.148;7.940;2023-06-22T03:54:38;101053.19;;;20.11
76583;BMP280;65462;52.148;7.940;2023-06-22T03:57:03;101053.19;;;20.08
76583;BMP280;65462;52.148;7.940;2023-06-22T03:59:29;101050.09;;;20.09
76583;BMP280;65462;52.148;7.940;2023-06-22T04:01:54;101057.00;;;20.07
76583;BMP280;65462;52.148;7.940;2023-06-22T04:04:20;101059.69;;;20.07
76583;BMP280;65462;52.148;7.940;2023-06-22T04:06:45;101055.88;;;20.08
76583;BMP280;65462;52.148;7.940;2023-06-22T04:09:10;101057.78;;;20.07
76583;BMP280;65462;52.148;7.940;2023-06-22T04:11:36;101055.88;;;20.08
76583;BMP280;65462;52.148;7.940;2023-06-22T04:14:01;101061.59;;;20.06
76583;BMP280;65462;52.148;7.940;2023-06-22T04:16:27;101063.50;;;20.06
76583;BMP280;65462;52.148;7.940;2023-06-22T04:18:53;101066.63;;;20.08
76583;BMP280;65462;52.148;7.940;2023-06-22T04:21:19;101063.53;;;20.09
76583;BMP280;65462;52.148;7.940;2023-06-22T04:23:47;101051.25;;;20.08
76583;BMP280;65462;52.148;7.940;2023-06-22T04:26:13;101043.22;;;20.12
76583;BMP280;65462;52.148;7.940;2023-06-22T04:28:39;101037.09;;;20.15
76583;BMP280;65462;52.148;7.940;2023-06-22T04:31:05;101041.31;;;20.12
76583;BMP280;65462;52.148;7.940;2023-06-22T04:33:31;101037.88;;;20.15
76583;BMP280;65462;52.148;7.940;2023-06-22T04:35:56;101037.09;;;20.18
76583;BMP280;65462;52.148;7.940;2023-06-22T04:38:22;101044.38;;;20.21
76583;BMP280;65462;52.148;7.940;2023-06-22T04:40:48;101036.34;;;20.21
76583;BMP280;65462;52.148;7.940;2023-06-22T04:43:15;101032.53;;;20.22
76583;BMP280;65462;52.148;7.940;2023-06-22T04:45:40;101032.16;;;20.27
76583;BMP280;65462;52.148;7.940;2023-06-22T04:48:05;101029.13;;;20.29
76583;BMP280;65462;52.148;7.940;2023-06-22T04:50:31;101032.59;;;20.33
76583;BMP280;65462;52.148;7.940;2023-06-22T04:52:56;101037.97;;;20.40
76583;BMP280;65462;52.148;7.940;2023-06-22T04:55:21;101032.25;;;20.45
76583;BMP280;65462;52.148;7.940;2023-06-22T04:57:48;101029.91;;;20.51
76583;BMP280;65462;52.148;7.940;2023-06-22T05:00:23;101026.09;;;20.55
76583;BMP280;65462;52.148;7.940;2023-06-22T05:02:49;101037.25;;;20.61
76583;BMP280;65462;52.148;7.940;2023-06-22T05:05:14;101026.94;;;20.63
76583;BMP280;65462;52.148;7.940;2023-06-22T05:07:47;101033.81;;;20.67
76583;BMP280;65462;52.148;7.940;2023-06-22T05:10:18;101028.09;;;20.72
76583;BMP280;65462;52.148;7.940;2023-06-22T05:12:44;101027.69;;;20.77
76583;BMP280;65462;52.148;7.940;2023-06-22T05:15:09;101031.53;;;20.83
76583;BMP280;65462;52.148;7.940;2023-06-22T05:17:35;101021.59;;;20.87
76583;BMP280;65462;52.148;7.940;2023-06-22T05:20:02;101027.31;;;20.96
76583;BMP280;65462;52.148;7.940;2023-06-22T05:22:27;101033.47;;;21.00
76583;BMP280;65462;52.148;7.940;2023-06-22T05:24:53;101043.06;;;21.08
76583;BMP280;65462;52.148;7.940;2023-06-22T05:27:18;101031.56;;;21.15
76583;BMP280;65462;52.148;7.940;2023-06-22T05:29:43;101035.03;;;21.22
76583;BMP280;65462;52.148;7.940;2023-06-22T05:32:09;101023.88;;;21.31
76583;BMP280;65462;52.148;7.940;2023-06-22T05:34:34;101020.03;;;21.39
76583;BMP280;65462;52.148;7.940;2023-06-22T05:37:00;101023.47;;;21.46
76583;BMP280;65462;52.148;7.940;2023-06-22T05:39:25;101016.50;;;21.56
76583;BMP280;65462;52.148;7.940;2023-06-22T05:41:51;101018.81;;;21.65
76583;BMP280;65462;52.148;7.940;2023-06-22T05:44:17;101021.09;;;21.70
76583;BMP280;65462;52.148;7.940;2023-06-22T05:46:43;101017.63;;;21.76
76583;BMP280;65462;52.148;7.940;2023-06-22T05:49:11;101018.75;;;21.82
76583;BMP280;65462;52.148;7.940;2023-06-22T05:51:36;101011.44;;;21.90
76583;BMP280;65462;52.148;7.940;2023-06-22T05:54:01;101012.56;;;21.96
76583;BMP280;65462;52.148;7.940;2023-06-22T05:56:26;101016.00;;;22.03
76583;BMP280;65462;52.148;7.940;2023-06-22T05:58:52;101022.09;;;22.11
76583;BMP280;65462;52.148;7.940;2023-06-22T06:01:17;101021.28;;;22.17
76583;BMP280;65462;52.148;7.940;2023-06-22T06:03:42;101027.44;;;22.28
76583;BMP280;65462;52.148;7.940;2023-06-22T06:06:09;101027.38;;;22.39
76583;BMP280;65462;52.148;7.940;2023-06-22T06:08:36;101026.16;;;22.47
76583;BMP280;65462;52.148;7.940;2023-06-22T06:11:01;101029.56;;;22.58
76583;BMP280;65462;52.148;7.940;2023-06-22T06:13:26;101026.75;;;22.69
76583;BMP280;65462;52.148;7.940;2023-06-22T06:15:51;101024.00;;;22.79
76583;BMP280;65462;52.148;7.940;2023-06-22T06:18:19;101025.84;;;22.89
76583;BMP280;65462;52.148;7.940;2023-06-22T06:20:45;101034.25;;;22.98
76583;BMP280;65462;52.148;7.940;2023-06-22T06:23:10;101028.78;;;23.05
76583;BMP280;65462;52.148;7.940;2023-06-22T06:25:35;101032.97;;;23.13
76583;BMP280;65462;52.148;7.940;2023-06-22T06:28:01;101031.38;;;23.19
76583;BMP280;65462;52.148;7.940;2023-06-22T06:30:26;101034.38;;;23.28
76583;BMP280;65462;52.148;7.940;2023-06-22T06:32:51;101033.88;;;23.37
76583;BMP280;65462;52.148;7.940;2023-06-22T06:35:17;101032.63;;;23.48
76583;BMP280;65462;52.148;7.940;2023-06-22T06:37:44;101026.38;;;23.55
76583;BMP280;65462;52.148;7.940;2023-06-22T06:40:11;101032.84;;;23.64
76583;BMP280;65462;52.148;7.940;2023-06-22T06:42:44;101030.81;;;23.72
76583;BMP280;65462;52.148;7.940;2023-06-22T06:45:18;101031.13;;;23.77
76583;BMP280;65462;52.148;7.940;2023-06-22T06:47:44;101038.38;;;23.84
76583;BMP280;65462;52.148;7.940;2023-06-22T06:50:10;101041.03;;;23.88
76583;BMP280;65462;52.148;7.940;2023-06-22T06:52:36;101024.47;;;23.86
76583;BMP280;65462;52.148;7.940;2023-06-22T06:55:02;101027.44;;;23.95
76583;BMP280;65462;52.148;7.940;2023-06-22T06:57:29;101040.13;;;23.98
76583;BMP280;65462;52.148;7.940;2023-06-22T06:59:56;101042.03;;;24.01
76583;BMP280;65462;52.148;7.940;2023-06-22T07:02:21;101038.16;;;24.02
76583;BMP280;65462;52.148;7.940;2023-06-22T07:04:47;101034.63;;;24.05
76583;BMP280;65462;52.148;7.940;2023-06-22T07:07:13;101035.34;;;24.09
76583;BMP280;65462;52.148;7.940;2023-06-22T07:09:38;101034.22;;;24.10
76583;BMP280;65462;52.148;7.940;2023-06-22T07:12:04;101038.03;;;24.12
76583;BMP280;65462;52.148;7.940;2023-06-22T07:14:29;101040.31;;;24.14
76583;BMP280;65462;52.148;7.940;2023-06-22T07:16:56;101044.91;;;24.17
76583;BMP280;65462;52.148;7.940;2023-06-22T07:19:26;101038.66;;;24.20
76583;BMP280;65462;52.148;7.940;2023-06-22T07:21:54;101037.53;;;24.21
76583;BMP280;65462;52.148;7.940;2023-06-22T07:24:20;101035.53;;;24.25
76583;BMP280;65462;52.148;7.940;2023-06-22T07:26:47;101033.56;;;24.29
76583;BMP280;65462;52.148;7.940;2023-06-22T07:29:13;101031.53;;;24.33
76583;BMP280;65462;52.148;7.940;2023-06-22T07:31:38;101024.16;;;24.37
76583;BMP280;65462;52.148;7.940;2023-06-22T07:34:05;101032.56;;;24.42
76583;BMP280;65462;52.148;7.940;2023-06-22T07:36:30;101034.41;;;24.49
76583;BMP280;65462;52.148;7.940;2023-06-22T07:38:56;101022.75;;;24.52
76583;BMP280;65462;52.148;7.940;2023-06-22T07:41:21;101025.41;;;24.55
76583;BMP280;65462;52.148;7.940;2023-06-22T07:43:46;101010.69;;;24.60
76583;BMP280;65462;52.148;7.940;2023-06-22T07:46:12;101019.13;;;24.62
76583;BMP280;65462;52.148;7.940;2023-06-22T07:48:37;101016.03;;;24.63
76583;BMP280;65462;52.148;7.940;2023-06-22T07:51:03;101011.41;;;24.64
76583;BMP280;65462;52.148;7.940;2023-06-22T07:53:28;101006.31;;;24.66
76583;BMP280;65462;52.148;7.940;2023-06-22T07:55:53;101007.09;;;24.66
76583;BMP280;65462;52.148;7.940;2023-06-22T07:58:19;101014.44;;;24.66
76583;BMP280;65462;52.148;7.940;2023-06-22T08:00:45;101026.81;;;24.67
76583;BMP280;65462;52.148;7.940;2023-06-22T08:03:11;101011.72;;;24.66
76583;BMP280;65462;52.148;7.940;2023-06-22T08:05:36;101011.72;;;24.66
76583;BMP280;65462;52.148;7.940;2023-06-22T08:08:02;101015.22;;;24.66
76583;BMP280;65462;52.148;7.940;2023-06-22T08:10:27;101010.19;;;24.65
76583;BMP280;65462;52.148;7.940;2023-06-22T08:12:52;101019.84;;;24.66
76583;BMP280;65462;52.148;7.940;2023-06-22T08:15:18;101010.56;;;24.67
76583;BMP280;65462;52.148;7.940;2023-06-22T08:17:44;101007.03;;;24.70
76583;BMP280;65462;52.148;7.940;2023-06-22T08:20:11;101001.63;;;24.70
76583;BMP280;65462;52.148;7.940;2023-06-22T08:22:40;100995.41;;;24.73
76583;BMP280;65462;52.148;7.940;2023-06-22T08:25:06;100999.97;;;24.76
76583;BMP280;65462;52.148;7.940;2023-06-22T08:27:31;100997.59;;;24.78
76583;BMP280;65462;52.148;7.940;2023-06-22T08:29:58;101004.16;;;24.80
76583;BMP280;65462;52.148;7.940;2023-06-22T08:32:27;101003.34;;;24.83
76583;BMP280;65462;52.148;7.940;2023-06-22T08:34:56;100997.84;;;24.87
76583;BMP280;65462;52.148;7.940;2023-06-22T08:37:22;101013.19;;;24.93
76583;BMP280;65462;52.148;7.940;2023-06-22T08:39:58;101007.72;;;24.97
76583;BMP280;65462;52.148;7.940;2023-06-22T08:42:24;101010.00;;;24.98
76583;BMP280;65462;52.148;7.940;2023-06-22T08:44:50;101007.66;;;25.00
76583;BMP280;65462;52.148;7.940;2023-06-22T08:47:15;101006.81;;;25.03
76583;BMP280;65462;52.148;7.940;2023-06-22T08:49:41;101009.13;;;25.05
76583;BMP280;65462;52.148;7.940;2023-06-22T08:52:06;100996.72;;;25.07
76583;BMP280;65462;52.148;7.940;2023-06-22T08:54:32;101000.94;;;25.08
76583;BMP280;65462;52.148;7.940;2023-06-22T08:57:02;100995.53;;;25.08
76583;BMP280;65462;52.148;7.940;2023-06-22T08:59:28;100990.88;;;25.09
76583;BMP280;65462;52.148;7.940;2023-06-22T09:01:53;100976.94;;;25.10
76583;BMP280;65462;52.148;7.940;2023-06-22T09:04:19;100981.94;;;25.12
76583;BMP280;65462;52.148;7.940;2023-06-22T09:06:47;100969.91;;;25.13
76583;BMP280;65462;52.148;7.940;2023-06-22T09:09:13;100967.97;;;25.13
76583;BMP280;65462;52.148;7.940;2023-06-22T09:11:39;100962.91;;;25.16
76583;BMP280;65462;52.148;7.940;2023-06-22T09:14:04;100954.38;;;25.17
76583;BMP280;65462;52.148;7.940;2023-06-22T09:16:30;100952.00;;;25.19
76583;BMP280;65462;52.148;7.940;2023-06-22T09:18:55;100946.97;;;25.21
76583;BMP280;65462;52.148;7.940;2023-06-22T09:21:21;100951.53;;;25.24
76583;BMP280;65462;52.148;7.940;2023-06-22T09:23:46;100948.00;;;25.27
76583;BMP280;65462;52.148;7.940;2023-06-22T09:26:15;100944.78;;;25.32
76583;BMP280;65462;52.148;7.940;2023-06-22T09:28:41;100950.06;;;25.39
76583;BMP280;65462;52.148;7.940;2023-06-22T09:31:06;100946.81;;;25.48
76583;BMP280;65462;52.148;7.940;2023-06-22T09:33:32;100947.38;;;25.55
76583;BMP280;65462;52.148;7.940;2023-06-22T09:35:57;100940.31;;;25.61
76583;BMP280;65462;52.148;7.940;2023-06-22T09:38:22;100932.00;;;25.68
76583;BMP280;65462;52.148;7.940;2023-06-22T09:40:48;100936.13;;;25.76
76583;BMP280;65462;52.148;7.940;2023-06-22T09:43:13;100940.25;;;25.81
76583;BMP280;65462;52.148;7.940;2023-06-22T09:45:38;100940.53;;;25.86
76583;BMP280;65462;52.148;7.940;2023-06-22T09:48:04;100942.72;;;25.91
76583;BMP280;65462;52.148;7.940;2023-06-22T09:50:29;100934.50;;;25.95
76583;BMP280;65462;52.148;7.940;2023-06-22T09:52:54;100920.44;;;26.00
76583;BMP280;65462;52.148;7.940;2023-06-22T09:55:21;100920.72;;;26.05
76583;BMP280;65462;52.148;7.940;2023-06-22T09:57:46;100920.94;;;26.11
76583;BMP280;65462;52.148;7.940;2023-06-22T10:00:13;100913.84;;;26.17
76583;BMP280;65462;52.148;7.940;2023-06-22T10:02:39;100905.19;;;26.22
76583;BMP280;65462;52.148;7.940;2023-06-22T10:05:05;100905.03;;;26.29
76583;BMP280;65462;52.148;7.940;2023-06-22T10:07:30;100896.72;;;26.36
76583;BMP280;65462;52.148;7.940;2023-06-22T10:09:56;100893.38;;;26.44
76583;BMP280;65462;52.148;7.940;2023-06-22T10:12:21;100894.69;;;26.52
76583;BMP280;65462;52.148;7.940;2023-06-22T10:14:46;100900.72;;;26.60
76583;BMP280;65462;52.148;7.940;2023-06-22T10:17:11;100906.72;;;26.68
76583;BMP280;65462;52.148;7.940;2023-06-22T10:19:37;100903.47;;;26.73
76583;BMP280;65462;52.148;7.940;2023-06-22T10:22:04;100910.66;;;26.79
76583;BMP280;65462;52.148;7.940;2023-06-22T10:24:30;100916.31;;;26.85
76583;BMP280;65462;52.148;7.940;2023-06-22T10:26:55;100911.88;;;26.91
76583;BMP280;65462;52.148;7.940;2023-06-22T10:29:20;100907.13;;;26.95
76583;BMP280;65462;52.148;7.940;2023-06-22T10:31:46;100916.25;;;27.01
76583;BMP280;65462;52.148;7.940;2023-06-22T10:34:11;100911.81;;;27.07
76583;BMP280;65462;52.148;7.940;2023-06-22T10:36:36;100905.75;;;27.15
76583;BMP280;65462;52.148;7.940;2023-06-22T10:39:02;100904.78;;;27.22
76583;BMP280;65462;52.148;7.940;2023-06-22T10:41:28;100900.31;;;27.28
76583;BMP280;65462;52.148;7.940;2023-06-22T10:43:55;100903.69;;;27.32
76583;BMP280;65462;52.148;7.940;2023-06-22T10:46:21;100912.41;;;27.39
76583;BMP280;65462;52.148;7.940;2023-06-22T10:48:46;100902.91;;;27.44
76583;BMP280;65462;52.148;7.940;2023-06-22T10:51:11;100902.41;;;27.49
76583;BMP280;65462;52.148;7.940;2023-06-22T10:53:37;100902.59;;;27.54
76583;BMP280;65462;52.148;7.940;2023-06-22T10:56:02;100892.41;;;27.58
76583;BMP280;65462;52.148;7.940;2023-06-22T10:58:27;100900.44;;;27.62
76583;BMP280;65462;52.148;7.940;2023-06-22T11:00:53;100898.81;;;27.64
76583;BMP280;65462;52.148;7.940;2023-06-22T11:03:18;100899.44;;;27.68
76583;BMP280;65462;52.148;7.940;2023-06-22T11:05:43;100896.50;;;27.75
76583;BMP280;65462;52.148;7.940;2023-06-22T11:08:09;100901.06;;;27.78
76583;BMP280;65462;52.148;7.940;2023-06-22T11:10:34;100890.72;;;27.86
76583;BMP280;65462;52.148;7.940;2023-06-22T11:12:59;100890.34;;;27.96
76583;BMP280;65462;52.148;7.940;2023-06-22T11:15:25;100892.38;;;28.05
76583;BMP280;65462;52.148;7.940;2023-06-22T11:17:50;100883.72;;;28.10
76583;BMP280;65462;52.148;7.940;2023-06-22T11:20:15;100867.69;;;28.12
76583;BMP280;65462;52.148;7.940;2023-06-22T11:22:41;100870.28;;;28.16
76583;BMP280;65462;52.148;7.940;2023-06-22T11:25:07;100864.41;;;28.17
76583;BMP280;65462;52.148;7.940;2023-06-22T11:27:33;100855.03;;;28.18
76583;BMP280;65462;52.148;7.940;2023-06-22T11:29:58;100856.13;;;28.21
76583;BMP280;65462;52.148;7.940;2023-06-22T11:32:23;100846.75;;;28.22
76583;BMP280;65462;52.148;7.940;2023-06-22T11:34:49;100842.38;;;28.24
76583;BMP280;65462;52.148;7.940;2023-06-22T11:37:14;100838.94;;;28.24
76583;BMP280;65462;52.148;7.940;2023-06-22T11:39:40;100826.84;;;28.25
76583;BMP280;65462;52.148;7.940;2023-06-22T11:42:06;100824.44;;;28.27
76583;BMP280;65462;52.148;7.940;2023-06-22T11:44:31;100819.31;;;28.29
76583;BMP280;65462;52.148;7.940;2023-06-22T11:46:56;100813.44;;;28.30
76583;BMP280;65462;52.148;7.940;2023-06-22T11:49:22;100811.03;;;28.32
76583;BMP280;65462;52.148;7.940;2023-06-22T11:51:47;100811.66;;;28.36
76583;BMP280;65462;52.148;7.940;2023-06-22T11:54:12;100804.13;;;28.40
76583;BMP280;65462;52.148;7.940;2023-06-22T11:56:38;100815.63;;;28.44
76583;BMP280;65462;52.148;7.940;2023-06-22T11:59:03;100815.38;;;28.51
76583;BMP280;65462;52.148;7.940;2023-06-22T12:01:28;100809.03;;;28.54
76583;BMP280;65462;52.148;7.940;2023-06-22T12:03:53;100811.94;;;28.60
76583;BMP280;65462;52.148;7.940;2023-06-22T12:06:19;100811.38;;;28.65
76583;BMP280;65462;52.148;7.940;2023-06-22T12:08:44;100812.75;;;28.69
76583;BMP280;65462;52.148;7.940;2023-06-22T12:11:09;100813.72;;;28.75
76583;BMP280;65462;52.148;7.940;2023-06-22T12:13:34;100817.00;;;28.79
76583;BMP280;65462;52.148;7.940;2023-06-22T12:16:00;100823.56;;;28.82
76583;BMP280;65462;52.148;7.940;2023-06-22T12:18:25;100832.03;;;28.84
76583;BMP280;65462;52.148;7.940;2023-06-22T12:20:50;100824.16;;;28.86
76583;BMP280;65462;52.148;7.940;2023-06-22T12:23:15;100828.13;;;28.85
76583;BMP280;65462;52.148;7.940;2023-06-22T12:25:41;100824.94;;;28.86
76583;BMP280;65462;52.148;7.940;2023-06-22T12:28:06;100821.03;;;28.87
76583;BMP280;65462;52.148;7.940;2023-06-22T12:30:34;100825.22;;;28.88
76583;BMP280;65462;52.148;7.940;2023-06-22T12:32:59;100822.69;;;28.85
76583;BMP280;65462;52.148;7.940;2023-06-22T12:35:25;100835.06;;;28.86
76583;BMP280;65462;52.148;7.940;2023-06-22T12:37:50;100830.84;;;28.85
76583;BMP280;65462;52.148;7.940;2023-06-22T12:40:15;100837.19;;;28.82
76583;BMP280;65462;52.148;7.940;2023-06-22T12:42:41;100825.19;;;28.79
76583;BMP280;65462;52.148;7.940;2023-06-22T12:45:07;100824.28;;;28.73
76583;BMP280;65462;52.148;7.940;2023-06-22T12:47:33;100822.91;;;28.69
76583;BMP280;65462;52.148;7.940;2023-06-22T12:49:58;100816.50;;;28.63
76583;BMP280;65462;52.148;7.940;2023-06-22T12:52:23;100810.44;;;28.59
76583;BMP280;65462;52.148;7.940;2023-06-22T12:54:49;100814.50;;;28.54
76583;BMP280;65462;52.148;7.940;2023-06-22T12:57:14;100814.00;;;28.47
76583;BMP280;65462;52.148;7.940;2023-06-22T12:59:39;100819.22;;;28.41
76583;BMP280;65462;52.148;7.940;2023-06-22T13:02:05;100823.72;;;28.35
76583;BMP280;65462;52.148;7.940;2023-06-22T13:04:30;100826.28;;;28.30
76583;BMP280;65462;52.148;7.940;2023-06-22T13:06:55;100811.72;;;28.24
76583;BMP280;65462;52.148;7.940;2023-06-22T13:09:21;100814.25;;;28.18
76583;BMP280;65462;52.148;7.940;2023-06-22T13:11:46;100815.25;;;28.11
76583;BMP280;65462;52.148;7.940;2023-06-22T13:14:11;100807.69;;;28.06
76583;BMP280;65462;52.148;7.940;2023-06-22T13:16:37;100811.41;;;28.00
76583;BMP280;65462;52.148;7.940;2023-06-22T13:19:02;100813.41;;;27.87
76583;BMP280;65462;52.148;7.940;2023-06-22T13:21:28;100809.84;;;27.77
76583;BMP280;65462;52.148;7.940;2023-06-22T13:23:53;100807.91;;;27.65
76583;BMP280;65462;52.148;7.940;2023-06-22T13:26:18;100804.03;;;27.54
76583;BMP280;65462;52.148;7.940;2023-06-22T13:28:44;100799.84;;;27.40
76583;BMP280;65462;52.148;7.940;2023-06-22T13:31:09;100807.25;;;27.27
76583;BMP280;65462;52.148;7.940;2023-06-22T13:33:34;100804.53;;;27.15
76583;BMP280;65462;52.148;7.940;2023-06-22T13:35:59;100808.75;;;27.03
76583;BMP280;65462;52.148;7.940;2023-06-22T13:38:25;100799.84;;;26.90
76583;BMP280;65462;52.148;7.940;2023-06-22T13:40:50;100802.84;;;26.80
76583;BMP280;65462;52.148;7.940;2023-06-22T13:43:16;100796.97;;;26.69
76583;BMP280;65462;52.148;7.940;2023-06-22T13:45:41;100791.53;;;26.56
76583;BMP280;65462;52.148;7.940;2023-06-22T13:48:07;100782.94;;;26.45
76583;BMP280;65462;52.148;7.940;2023-06-22T13:50:33;100773.47;;;26.37
76583;BMP280;65462;52.148;7.940;2023-06-22T13:52:58;100752.84;;;26.27
76583;BMP280;65462;52.148;7.940;2023-06-22T13:55:24;100718.34;;;26.15